Terminal Aerodrome Forecast
Issued by NWS

Home | Current Version | Previous Version | Graphics & Text | Print | Product List | Glossary On
Versions: 1 2 3 4 5 6 7 8 9 10 11 12 13 14 15 16 17 18 19 20 21 22 23 24 25 26 27 28 29 30 31 32 33 34 35
000
FTUS43 KABR 302324
TAFMBG
TAF
KMBG 302324Z 0100/0124 11009KT P6SM VCSH SCT080 BKN250
     FM010200 12008KT P6SM BKN100
     FM011900 01007KT P6SM VCSH OVC050=

USA.gov is the U.S. government's official web portal to all federal, state and local government web resources and services.